Terminal Aerodrome Forecast
Issued by NWS

Home | Current Version | Previous Version | Text Only | Print | Product List | Glossary On
Versions: 1 2 3 4 5 6 7 8 9 10 11 12 13 14 15 16 17 18 19 20 21 22 23 24 25
000
FTUS44 KEWX 051229 AAA
TAFSSF
TAF AMD
KSSF 051229Z 0512/0612 35014G24KT P6SM OVC018
     FM051730 01016G26KT P6SM FEW025 SCT250
     FM060100 02010KT P6SM FEW250
     FM060800 01005KT P6SM FEW250=

USA.gov is the U.S. government's official web portal to all federal, state and local government web resources and services.